X  Close Metar Aviation Weather Data     EHRD Rotterdam The Hague Airport
Temperature
7°C Temperature
4°C Dewpoint
81% Humidity



Wind
29 KM/H
18 MPH
8 M/S
16 KTS



190°
South
Current Conditions

Partly Cloudy Partly Cloudy
Pressure 988.92 (hPa) - 29.2 (inHg)
Visibility 6.2 (mile) - 10 (km)
Airport
Airport-code EHRD

Location: Rotterdam The Hague Airport
Distance: 16 (km)

Metar:
EHRD 210955Z AUTO 19016KT 160V230 9999 FEW017 07/04 Q0989 NOSIG

Time: 21-01-2021 10:55 CET